Kezdőlap
METAR-TAF:

METAR-TAF

Repülőterek :

Eastern Slopes Regional Airport

Fryeburg, Maine, Amerikai Egyesült Államok

földrajzi szélesség: 43-59-21N, földrajzi hosszúság: 070-57-01W, magasság: 137 m

Jelenlegi meteorológiai megfigyelések

A jelentés 32 perccel ezelõtt készült, 06:31 UTC
Délkeleti szél 3 kt
Hőmérséklet 15°C
Páratartalom 88%
Légköri nyomás 1022 hPa
Látótávolság: 16.1 km
Borult 2900 lábon

METAR: KIZG 260631Z AUTO 14003KT 10SM OVC029 15/13 A3019 RMK AO2 T01500128

Idő: 03:03 (07:03 UTC)


TAF: hiányzik

Meteorológiai megfigyelések és előrejelzések több, mint 4000 repülőtéren (METAR és TAF jelentéseket).

A térképen piros és sárga pontok jelzik az elérhető meteorológiai állomásokat.

Mozgassa az egeret a pont fölött, hogy megjelenjen az állomás neve.

Azután kattintson az időjárási megfigyelések és előrejelzések megtekintéséhez.

A térkép megváltoztatása: kattintson a fekete keresztel jelölt zöld gombra ráközelítéshez, a vonallal jelölt zöld gombra távolításhoz, vagy a zöld nyilakra a szomszédos térképek eléréséhez.


METAR-TAF: